createdAt,value
2023-01-09T00:01:41.748Z,4.36
2023-01-09T00:04:10.246Z,4.36
2023-01-09T00:06:40.355Z,4.34
2023-01-09T00:09:08.474Z,4.34
2023-01-09T00:11:38.761Z,4.35
2023-01-09T00:14:06.982Z,4.36
2023-01-09T00:16:35.094Z,4.35
2023-01-09T00:19:03.155Z,4.29
2023-01-09T00:21:31.465Z,4.29
2023-01-09T00:23:59.629Z,4.33
2023-01-09T00:26:27.703Z,4.34
2023-01-09T00:28:55.985Z,4.34
2023-01-09T00:31:23.947Z,4.30
2023-01-09T00:33:57.929Z,4.28
2023-01-09T00:36:26.271Z,4.30
2023-01-09T00:38:54.326Z,4.33
2023-01-09T00:41:43.656Z,4.29
2023-01-09T00:44:23.764Z,4.30
2023-01-09T00:46:57.243Z,4.35
2023-01-09T00:49:25.178Z,4.36
2023-01-09T00:51:53.141Z,4.33
2023-01-09T00:54:21.910Z,4.32
2023-01-09T00:56:49.930Z,4.34
2023-01-09T00:59:18.092Z,4.29
2023-01-09T01:01:46.186Z,4.27
2023-01-09T01:04:33.608Z,4.29
2023-01-09T01:07:20.477Z,4.32
2023-01-09T01:09:48.478Z,4.30
2023-01-09T01:12:16.514Z,4.27
2023-01-09T01:14:44.457Z,4.26
2023-01-09T01:17:12.380Z,4.29
2023-01-09T01:19:40.423Z,4.25
2023-01-09T01:22:08.489Z,4.23
2023-01-09T01:24:36.486Z,4.21
2023-01-09T01:27:04.477Z,4.21
2023-01-09T01:29:32.962Z,4.23
2023-01-09T01:32:01.029Z,4.19
2023-01-09T01:34:29.658Z,4.11
2023-01-09T01:36:57.743Z,4.12
2023-01-09T01:39:26.092Z,4.16
2023-01-09T01:41:54.188Z,4.13
2023-01-09T01:45:00.379Z,4.11
2023-01-09T01:47:39.030Z,4.11
2023-01-09T01:50:19.999Z,4.14
2023-01-09T01:52:57.036Z,4.12
2023-01-09T01:55:25.111Z,4.14
2023-01-09T01:57:56.265Z,4.15
2023-01-09T02:00:32.999Z,4.17
2023-01-09T02:03:01.425Z,4.16
2023-01-09T02:05:29.599Z,4.18
2023-01-09T02:07:57.830Z,4.19
2023-01-09T02:10:25.863Z,4.20
2023-01-09T02:12:53.937Z,4.21
2023-01-09T02:15:22.489Z,4.20
2023-01-09T02:17:56.915Z,4.19
2023-01-09T02:20:30.950Z,4.20
2023-01-09T02:23:17.925Z,4.24
2023-01-09T02:26:07.687Z,4.22
2023-01-09T02:29:10.039Z,4.21
2023-01-09T02:31:40.843Z,4.23
2023-01-09T02:34:25.271Z,4.21
2023-01-09T02:36:53.185Z,4.21
2023-01-09T02:39:33.230Z,4.21
2023-01-09T02:42:08.655Z,4.22
2023-01-09T02:44:37.150Z,4.27
2023-01-09T02:47:32.190Z,4.29
2023-01-09T02:50:04.885Z,4.28
2023-01-09T02:53:11.658Z,4.27
2023-01-09T02:55:59.197Z,4.31
2023-01-09T02:58:53.093Z,4.31
2023-01-09T03:01:29.344Z,4.28
2023-01-09T03:04:15.962Z,4.27
2023-01-09T03:06:56.373Z,4.28
2023-01-09T03:09:27.641Z,4.29
2023-01-09T03:12:20.633Z,4.34
2023-01-09T03:14:51.019Z,4.33
2023-01-09T03:17:30.341Z,4.27
2023-01-09T03:19:58.368Z,4.25
2023-01-09T03:22:26.386Z,4.30
2023-01-09T03:24:54.449Z,4.29
2023-01-09T03:27:22.466Z,4.26
2023-01-09T03:29:51.426Z,4.28
2023-01-09T03:32:20.040Z,4.28
2023-01-09T03:34:48.090Z,4.32
2023-01-09T03:37:16.478Z,4.33
2023-01-09T03:39:44.457Z,4.30
2023-01-09T03:42:12.594Z,4.32
2023-01-09T03:44:40.560Z,4.35
2023-01-09T03:47:08.595Z,4.41
2023-01-09T03:49:36.707Z,4.41
2023-01-09T03:52:05.119Z,4.41
2023-01-09T03:54:33.051Z,4.39
2023-01-09T03:57:01.045Z,4.41
2023-01-09T03:59:29.009Z,4.40
2023-01-09T04:01:57.168Z,4.35
2023-01-09T04:04:25.302Z,4.35
2023-01-09T04:06:53.310Z,4.38
2023-01-09T04:09:21.438Z,4.36
2023-01-09T04:11:49.522Z,4.34
2023-01-09T04:14:17.625Z,4.32
2023-01-09T04:16:45.784Z,4.34
2023-01-09T04:19:14.239Z,4.38
2023-01-09T04:21:42.308Z,4.33
2023-01-09T04:24:10.440Z,4.34
2023-01-09T04:26:38.553Z,4.35
2023-01-09T04:29:07.237Z,4.38
2023-01-09T04:31:36.054Z,4.36
2023-01-09T04:34:04.196Z,4.38
2023-01-09T04:36:34.764Z,4.38
2023-01-09T04:39:03.434Z,4.35
2023-01-09T04:41:49.674Z,4.38
2023-01-09T04:44:19.214Z,4.41
2023-01-09T04:46:47.780Z,4.37
2023-01-09T04:49:16.077Z,4.37
2023-01-09T04:51:44.267Z,4.43
2023-01-09T04:54:12.764Z,4.38
2023-01-09T04:56:40.889Z,4.33
2023-01-09T04:59:09.217Z,4.33
2023-01-09T05:01:37.643Z,4.35
2023-01-09T05:04:06.097Z,4.34
2023-01-09T05:06:34.531Z,4.30
2023-01-09T05:09:02.760Z,4.30
2023-01-09T05:11:30.928Z,4.33
2023-01-09T05:13:59.133Z,4.38
2023-01-09T05:16:27.239Z,4.38
2023-01-09T05:18:57.310Z,4.36
2023-01-09T05:21:25.494Z,4.32
2023-01-09T05:23:53.774Z,4.35
2023-01-09T05:26:26.403Z,4.34
2023-01-09T05:28:56.601Z,4.29
2023-01-09T05:31:25.957Z,4.27
2023-01-09T05:33:54.289Z,4.27
2023-01-09T05:36:22.734Z,4.29
2023-01-09T05:38:51.059Z,4.29
2023-01-09T05:41:19.145Z,4.25
2023-01-09T05:43:47.203Z,4.21
2023-01-09T05:46:16.418Z,4.22
2023-01-09T05:48:45.341Z,4.23
2023-01-09T05:51:13.533Z,4.17
2023-01-09T05:53:43.555Z,4.11
2023-01-09T05:56:12.059Z,4.16
2023-01-09T05:58:40.546Z,4.14
2023-01-09T06:01:08.769Z,4.10
2023-01-09T06:03:36.826Z,4.03
2023-01-09T06:06:05.129Z,4.01
2023-01-09T06:08:33.121Z,3.98
2023-01-09T06:11:01.326Z,3.91
2023-01-09T06:13:29.604Z,3.86
2023-01-09T06:15:57.825Z,3.84
2023-01-09T06:18:26.015Z,3.82
2023-01-09T06:20:55.492Z,3.72
2023-01-09T06:23:23.608Z,3.63
2023-01-09T06:25:51.875Z,3.55
2023-01-09T06:28:20.263Z,3.51
2023-01-09T06:30:54.276Z,3.47
2023-01-09T06:33:22.724Z,3.44
2023-01-09T06:35:50.753Z,3.38
2023-01-09T06:38:18.838Z,3.33
2023-01-09T06:40:46.962Z,3.32
2023-01-09T06:43:15.143Z,3.33
2023-01-09T06:45:44.018Z,3.34
2023-01-09T06:48:12.487Z,3.31
2023-01-09T06:50:40.808Z,3.27
2023-01-09T06:53:10.881Z,3.29
2023-01-09T06:55:39.113Z,3.31
2023-01-09T06:58:07.362Z,3.26
2023-01-09T07:00:35.628Z,3.20
2023-01-09T07:03:04.249Z,3.17
2023-01-09T07:05:34.286Z,3.19
2023-01-09T07:08:02.422Z,3.14
2023-01-09T07:10:30.661Z,3.09
2023-01-09T07:12:58.773Z,3.07
2023-01-09T07:15:26.980Z,3.08
2023-01-09T07:17:54.983Z,3.06
2023-01-09T07:20:23.187Z,3.04
2023-01-09T07:22:51.466Z,3.05
2023-01-09T07:25:19.644Z,3.05
2023-01-09T07:27:47.825Z,3.03
2023-01-09T07:30:16.322Z,3.04
2023-01-09T07:32:45.198Z,3.08
2023-01-09T07:35:13.645Z,3.14
2023-01-09T07:37:41.839Z,3.10
2023-01-09T07:40:10.728Z,3.11
2023-01-09T07:42:38.894Z,3.11
2023-01-09T07:45:07.723Z,3.15
2023-01-09T07:47:35.989Z,3.15
2023-01-09T07:50:04.382Z,3.18
2023-01-09T07:52:32.828Z,3.23
2023-01-09T07:55:00.836Z,3.26
2023-01-09T07:57:30.848Z,3.14
2023-01-09T08:00:00.675Z,3.11
2023-01-09T08:02:29.072Z,3.11
2023-01-09T08:04:57.261Z,3.14
2023-01-09T08:07:25.294Z,3.14
2023-01-09T08:09:53.476Z,3.09
2023-01-09T08:12:21.441Z,3.03
2023-01-09T08:14:49.517Z,3.04
2023-01-09T08:17:17.638Z,3.07
2023-01-09T08:19:45.728Z,3.06
2023-01-09T08:22:14.082Z,3.12
2023-01-09T08:24:42.265Z,3.13
2023-01-09T08:27:10.623Z,3.09
2023-01-09T08:29:38.820Z,3.07
2023-01-09T08:32:07.264Z,3.15
2023-01-09T08:34:35.858Z,3.20
2023-01-09T08:37:04.591Z,3.19
2023-01-09T08:39:33.255Z,3.21
2023-01-09T08:42:20.279Z,3.27
2023-01-09T08:45:07.144Z,3.30
2023-01-09T08:47:36.351Z,3.30
2023-01-09T08:50:05.150Z,3.31
2023-01-09T08:52:33.160Z,3.36
2023-01-09T08:55:01.152Z,3.40
2023-01-09T08:57:29.525Z,3.44
2023-01-09T09:00:00.632Z,3.50
2023-01-09T09:02:28.933Z,3.56
2023-01-09T09:04:57.064Z,3.61
2023-01-09T09:07:28.296Z,3.64
2023-01-09T09:09:56.544Z,3.69
2023-01-09T09:12:24.629Z,3.76
2023-01-09T09:15:11.686Z,3.82
2023-01-09T09:17:40.559Z,3.85
2023-01-09T09:20:09.956Z,3.88
2023-01-09T09:22:38.469Z,3.93
2023-01-09T09:25:07.184Z,3.94
2023-01-09T09:27:36.687Z,3.96
2023-01-09T09:30:05.168Z,3.94
2023-01-09T09:32:33.300Z,3.96
2023-01-09T09:35:01.369Z,3.97
2023-01-09T09:37:29.493Z,3.96
2023-01-09T09:39:58.088Z,3.97
2023-01-09T09:42:59.069Z,4.02
2023-01-09T09:45:33.463Z,4.07
2023-01-09T09:48:30.502Z,4.11
2023-01-09T09:51:20.483Z,4.18
2023-01-09T09:53:51.942Z,4.16
2023-01-09T09:56:21.928Z,4.15
2023-01-09T09:59:09.851Z,4.21
2023-01-09T10:01:51.322Z,4.23
2023-01-09T10:04:20.223Z,4.26
2023-01-09T10:06:51.371Z,4.26
2023-01-09T10:09:57.787Z,4.35
2023-01-09T10:12:32.615Z,4.37
2023-01-09T10:15:21.899Z,4.39
2023-01-09T10:18:31.780Z,4.41
2023-01-09T10:21:10.322Z,4.43
2023-01-09T10:23:48.074Z,4.44
2023-01-09T10:26:24.236Z,4.45
2023-01-09T10:29:07.588Z,4.49
2023-01-09T10:32:07.009Z,4.59
2023-01-09T10:34:54.947Z,4.66
2023-01-09T10:37:28.399Z,4.68
2023-01-09T10:40:08.361Z,4.68
2023-01-09T10:42:43.221Z,4.76
2023-01-09T10:45:20.324Z,4.75
2023-01-09T10:47:48.500Z,4.72
2023-01-09T10:50:22.158Z,4.75
2023-01-09T10:52:52.421Z,4.76
2023-01-09T10:55:36.057Z,4.75
2023-01-09T10:58:10.765Z,4.63
2023-01-09T11:00:38.909Z,4.61
2023-01-09T11:03:18.118Z,4.63
2023-01-09T11:05:57.415Z,4.58
2023-01-09T11:08:33.861Z,4.52
2023-01-09T11:11:03.279Z,4.48
2023-01-09T11:13:33.577Z,4.51
2023-01-09T11:16:07.098Z,4.51
2023-01-09T11:18:38.447Z,4.49
2023-01-09T11:21:13.687Z,4.47
2023-01-09T11:23:41.800Z,4.47
2023-01-09T11:26:22.464Z,4.51
2023-01-09T11:29:26.178Z,4.49
2023-01-09T11:31:59.571Z,4.55
2023-01-09T11:34:29.354Z,4.57
2023-01-09T11:37:11.911Z,4.56
2023-01-09T11:39:41.991Z,4.49
2023-01-09T11:42:40.917Z,4.50
2023-01-09T11:45:19.952Z,4.47
2023-01-09T11:47:48.240Z,4.48
2023-01-09T11:50:21.242Z,4.48
2023-01-09T11:53:08.065Z,4.50
2023-01-09T11:55:42.582Z,4.47
2023-01-09T11:58:18.262Z,4.46
2023-01-09T12:00:58.381Z,4.53
2023-01-09T12:03:52.440Z,4.52
2023-01-09T12:06:23.230Z,4.48
2023-01-09T12:09:01.387Z,4.48
2023-01-09T12:11:54.202Z,4.52
2023-01-09T12:14:33.875Z,4.57
2023-01-09T12:17:26.295Z,4.59
2023-01-09T12:20:19.672Z,4.67
2023-01-09T12:23:13.455Z,4.70
2023-01-09T12:26:17.726Z,4.64
2023-01-09T12:29:07.502Z,4.65
2023-01-09T12:31:58.997Z,4.76
2023-01-09T12:34:30.906Z,4.84
2023-01-09T12:37:11.748Z,4.83
2023-01-09T12:39:56.920Z,4.79
2023-01-09T12:42:35.361Z,4.81
2023-01-09T12:45:24.577Z,4.83
2023-01-09T12:47:53.527Z,4.80
2023-01-09T12:50:47.024Z,4.78
2023-01-09T12:53:20.391Z,4.82
2023-01-09T12:56:15.204Z,4.87
2023-01-09T12:58:48.270Z,4.88
2023-01-09T13:01:25.355Z,4.96
2023-01-09T13:04:14.064Z,5.01
2023-01-09T13:06:45.721Z,5.03
2023-01-09T13:09:45.107Z,5.09
2023-01-09T13:12:21.452Z,5.14
2023-01-09T13:14:54.116Z,5.15
2023-01-09T13:17:28.540Z,5.13
2023-01-09T13:19:56.753Z,5.20
2023-01-09T13:22:26.515Z,5.25
2023-01-09T13:25:16.761Z,5.28
2023-01-09T13:27:49.244Z,5.27
2023-01-09T13:30:21.625Z,5.24
2023-01-09T13:33:17.397Z,5.16
2023-01-09T13:35:50.334Z,5.03
2023-01-09T13:38:23.187Z,4.99
2023-01-09T13:41:30.243Z,5.00
2023-01-09T13:43:59.781Z,5.04
2023-01-09T13:46:42.979Z,5.08
2023-01-09T13:49:31.317Z,5.11
2023-01-09T13:52:07.046Z,5.16
2023-01-09T13:54:47.514Z,5.19
2023-01-09T13:57:19.036Z,5.18
2023-01-09T13:59:48.779Z,5.12
2023-01-09T14:02:36.008Z,5.11
2023-01-09T14:05:10.705Z,5.12
2023-01-09T14:07:39.277Z,5.11
2023-01-09T14:10:23.192Z,5.12
2023-01-09T14:12:52.044Z,5.04
2023-01-09T14:15:27.571Z,5.03
2023-01-09T14:18:00.131Z,5.03
2023-01-09T14:20:37.837Z,5.00
2023-01-09T14:23:45.545Z,4.98
2023-01-09T14:25:56.073Z,4.98
2023-01-09T14:28:28.380Z,4.96
2023-01-09T14:30:56.496Z,4.91
2023-01-09T14:33:27.099Z,4.92
2023-01-09T14:36:14.380Z,4.96
2023-01-09T14:38:49.261Z,4.95
2023-01-09T14:42:05.692Z,4.90
2023-01-09T14:44:42.864Z,4.85
2023-01-09T14:47:31.172Z,4.87
2023-01-09T14:50:04.419Z,4.87
2023-01-09T14:52:40.768Z,4.81
2023-01-09T14:55:21.952Z,4.77
2023-01-09T14:57:59.463Z,4.77
2023-01-09T15:00:27.516Z,4.77
2023-01-09T15:02:55.793Z,4.74
2023-01-09T15:05:25.395Z,4.73
2023-01-09T15:07:58.559Z,4.70
2023-01-09T15:10:29.361Z,4.68
2023-01-09T15:12:58.859Z,4.66
2023-01-09T15:15:27.092Z,4.67
2023-01-09T15:17:59.634Z,4.69
2023-01-09T15:20:30.101Z,4.72
2023-01-09T15:23:00.890Z,4.72
2023-01-09T15:25:45.106Z,4.68
2023-01-09T15:28:23.765Z,4.65
2023-01-09T15:31:01.493Z,4.66
2023-01-09T15:33:33.198Z,4.64
2023-01-09T15:36:02.854Z,4.59
2023-01-09T15:38:31.764Z,4.59
2023-01-09T15:41:10.083Z,4.62
2023-01-09T15:43:43.138Z,4.65
2023-01-09T15:46:12.130Z,4.67
2023-01-09T15:48:40.325Z,4.65
2023-01-09T15:51:13.615Z,4.66
2023-01-09T15:53:41.794Z,4.69
2023-01-09T15:56:17.352Z,4.71
2023-01-09T15:58:47.397Z,4.70
2023-01-09T16:01:42.226Z,4.70
2023-01-09T16:04:15.927Z,4.69
2023-01-09T16:06:49.126Z,4.71
2023-01-09T16:09:23.321Z,4.70
2023-01-09T16:11:53.738Z,4.70
2023-01-09T16:14:35.571Z,4.71
2023-01-09T16:17:07.288Z,4.75
2023-01-09T16:19:51.670Z,4.77
2023-01-09T16:22:27.800Z,4.74
2023-01-09T16:25:01.212Z,4.76
2023-01-09T16:27:36.108Z,4.75
2023-01-09T16:30:20.591Z,4.75
2023-01-09T16:32:51.574Z,4.75
2023-01-09T16:35:21.125Z,4.78
2023-01-09T16:37:49.297Z,4.73
2023-01-09T16:40:17.373Z,4.70
2023-01-09T16:43:01.145Z,4.69
2023-01-09T16:45:39.604Z,4.73
2023-01-09T16:48:18.671Z,4.77
2023-01-09T16:50:47.421Z,4.76
2023-01-09T16:53:17.462Z,4.72
2023-01-09T16:55:45.976Z,4.71
2023-01-09T16:58:17.706Z,4.73
2023-01-09T17:00:48.222Z,4.74
2023-01-09T17:03:16.838Z,4.77
2023-01-09T17:05:45.135Z,4.74
2023-01-09T17:08:19.484Z,4.69
2023-01-09T17:10:47.495Z,4.67
2023-01-09T17:13:15.553Z,4.70
2023-01-09T17:15:43.656Z,4.66
2023-01-09T17:18:16.426Z,4.63
2023-01-09T17:20:45.729Z,4.62
2023-01-09T17:23:13.912Z,4.62
2023-01-09T17:26:01.245Z,4.63
2023-01-09T17:28:32.289Z,4.65
2023-01-09T17:31:00.901Z,4.63
2023-01-09T17:33:29.344Z,4.62
2023-01-09T17:35:57.674Z,4.62
2023-01-09T17:38:25.764Z,4.62
2023-01-09T17:40:55.679Z,4.62
2023-01-09T17:43:23.736Z,4.62
2023-01-09T17:45:51.881Z,4.63
2023-01-09T17:48:21.641Z,4.65
2023-01-09T17:50:49.768Z,4.67
2023-01-09T17:53:20.804Z,4.67
2023-01-09T17:55:48.813Z,4.65
2023-01-09T17:58:29.061Z,4.64
2023-01-09T18:00:57.902Z,4.65
2023-01-09T18:03:31.290Z,4.64
2023-01-09T18:05:59.920Z,4.62
2023-01-09T18:08:27.951Z,4.65
2023-01-09T18:10:56.241Z,4.68
2023-01-09T18:13:24.634Z,4.70
2023-01-09T18:15:52.855Z,4.74
2023-01-09T18:18:22.601Z,4.75
2023-01-09T18:20:51.249Z,4.71
2023-01-09T18:23:19.676Z,4.69
2023-01-09T18:25:51.553Z,4.71
2023-01-09T18:28:20.595Z,4.71
2023-01-09T18:30:52.219Z,4.67
2023-01-09T18:33:20.539Z,4.64
2023-01-09T18:35:48.685Z,4.65
2023-01-09T18:38:16.752Z,4.68
2023-01-09T18:40:46.887Z,4.71
2023-01-09T18:43:15.749Z,4.74
2023-01-09T18:45:43.964Z,4.75
2023-01-09T18:48:12.289Z,4.73
2023-01-09T18:50:40.411Z,4.74
2023-01-09T18:53:08.610Z,4.74
2023-01-09T18:55:36.887Z,4.74
2023-01-09T18:58:05.096Z,4.71
2023-01-09T19:00:33.119Z,4.69
2023-01-09T19:03:01.292Z,4.71
2023-01-09T19:05:29.256Z,4.73
2023-01-09T19:07:57.355Z,4.74
2023-01-09T19:10:25.391Z,4.72
2023-01-09T19:12:53.929Z,4.73
2023-01-09T19:15:21.972Z,4.71
2023-01-09T19:17:51.927Z,4.70
2023-01-09T19:20:19.984Z,4.72
2023-01-09T19:22:48.036Z,4.74
2023-01-09T19:25:16.493Z,4.76
2023-01-09T19:27:44.601Z,4.78
2023-01-09T19:30:13.115Z,4.76
2023-01-09T19:32:41.308Z,4.79
2023-01-09T19:35:09.867Z,4.78
2023-01-09T19:37:38.024Z,4.77
2023-01-09T19:40:06.999Z,4.77
2023-01-09T19:42:35.162Z,4.78
2023-01-09T19:45:03.425Z,4.80
2023-01-09T19:47:37.680Z,4.80
2023-01-09T19:50:06.197Z,4.85
2023-01-09T19:52:34.594Z,4.84
2023-01-09T19:55:02.576Z,4.83
2023-01-09T19:57:30.602Z,4.82
2023-01-09T19:59:58.750Z,4.85
2023-01-09T20:02:28.196Z,4.88
2023-01-09T20:04:56.413Z,4.90
2023-01-09T20:07:24.376Z,4.91
2023-01-09T20:09:52.526Z,4.91
2023-01-09T20:12:20.846Z,4.90
2023-01-09T20:14:49.698Z,4.93
2023-01-09T20:17:20.168Z,4.96
2023-01-09T20:19:50.835Z,4.99
2023-01-09T20:22:18.825Z,5.02
2023-01-09T20:24:48.852Z,5.02
2023-01-09T20:27:18.464Z,5.02
2023-01-09T20:29:48.161Z,5.04
2023-01-09T20:32:16.391Z,5.05
2023-01-09T20:34:44.530Z,5.07
2023-01-09T20:37:12.955Z,5.07
2023-01-09T20:39:42.806Z,5.08
2023-01-09T20:42:12.322Z,5.11
2023-01-09T20:44:40.279Z,5.13
2023-01-09T20:47:08.443Z,5.17
2023-01-09T20:49:36.937Z,5.18
2023-01-09T20:52:05.291Z,5.19
2023-01-09T20:54:33.367Z,5.21
2023-01-09T20:57:01.329Z,5.25
2023-01-09T20:59:29.432Z,5.26
2023-01-09T21:01:57.894Z,5.28
2023-01-09T21:04:26.309Z,5.31
2023-01-09T21:06:54.719Z,5.28
2023-01-09T21:09:25.320Z,5.29
2023-01-09T21:11:53.340Z,5.31
2023-01-09T21:14:21.513Z,5.30
2023-01-09T21:16:54.596Z,5.27
2023-01-09T21:19:23.379Z,5.27
2023-01-09T21:21:53.236Z,5.29
2023-01-09T21:24:21.821Z,5.29
2023-01-09T21:26:49.832Z,5.31
2023-01-09T21:29:17.821Z,5.30
2023-01-09T21:31:46.150Z,5.29
2023-01-09T21:34:16.160Z,5.31
2023-01-09T21:36:46.609Z,5.34
2023-01-09T21:39:19.090Z,5.34
2023-01-09T21:42:05.824Z,5.37
2023-01-09T21:44:52.875Z,5.39
2023-01-09T21:47:21.197Z,5.40
2023-01-09T21:49:49.621Z,5.39
2023-01-09T21:52:18.757Z,5.41
2023-01-09T21:54:46.857Z,5.39
2023-01-09T21:57:14.954Z,5.39
2023-01-09T21:59:42.992Z,5.40
2023-01-09T22:02:12.483Z,5.41
2023-01-09T22:04:40.512Z,5.41
2023-01-09T22:07:10.262Z,5.40
2023-01-09T22:09:38.237Z,5.42
2023-01-09T22:12:06.574Z,5.44
2023-01-09T22:14:34.581Z,5.48
2023-01-09T22:17:02.573Z,5.48
2023-01-09T22:19:30.648Z,5.43
2023-01-09T22:21:59.918Z,5.41
2023-01-09T22:24:27.841Z,5.42
2023-01-09T22:26:55.824Z,5.41
2023-01-09T22:29:23.904Z,5.35
2023-01-09T22:31:52.371Z,5.29
2023-01-09T22:34:20.510Z,5.26
2023-01-09T22:36:48.588Z,5.25
2023-01-09T22:39:18.338Z,5.23
2023-01-09T22:41:50.577Z,5.22
2023-01-09T22:44:19.590Z,5.23
2023-01-09T22:46:48.045Z,5.24
2023-01-09T22:49:16.273Z,5.24
2023-01-09T22:51:45.056Z,5.22
2023-01-09T22:54:13.159Z,5.18
2023-01-09T22:56:41.097Z,5.15
2023-01-09T22:59:09.157Z,5.11
2023-01-09T23:01:37.340Z,5.08
2023-01-09T23:04:05.502Z,5.04
2023-01-09T23:06:33.483Z,4.97
2023-01-09T23:09:01.505Z,4.92
2023-01-09T23:11:53.473Z,4.91
2023-01-09T23:14:21.653Z,4.88
2023-01-09T23:16:49.570Z,4.86
2023-01-09T23:19:17.543Z,4.83
2023-01-09T23:21:45.732Z,4.77
2023-01-09T23:24:15.599Z,4.69
2023-01-09T23:26:43.952Z,4.62
2023-01-09T23:29:12.094Z,4.55
2023-01-09T23:31:40.117Z,4.45
2023-01-09T23:34:08.477Z,4.34
2023-01-09T23:36:36.870Z,4.24
2023-01-09T23:39:09.088Z,4.17
2023-01-09T23:41:56.079Z,4.10
2023-01-09T23:44:24.071Z,4.02
2023-01-09T23:46:52.155Z,3.92
2023-01-09T23:49:20.356Z,3.81
2023-01-09T23:51:48.407Z,3.73
2023-01-09T23:54:17.232Z,3.67
2023-01-09T23:56:45.205Z,3.62
2023-01-09T23:59:14.685Z,3.53
